sensor_id;sensor_type;location;lat;lon;timestamp;P1;durP1;ratioP1;P2;durP2;ratioP2
28003;SDS011;15330;51.234;6.754;2023-09-12T00:01:59;14.95;;;10.30;;
28003;SDS011;15330;51.234;6.754;2023-09-12T00:04:25;15.70;;;10.57;;
28003;SDS011;15330;51.234;6.754;2023-09-12T00:06:50;17.63;;;10.80;;
28003;SDS011;15330;51.234;6.754;2023-09-12T00:09:16;17.15;;;11.93;;
28003;SDS011;15330;51.234;6.754;2023-09-12T00:11:41;18.70;;;11.35;;
28003;SDS011;15330;51.234;6.754;2023-09-12T00:14:08;16.90;;;12.38;;
28003;SDS011;15330;51.234;6.754;2023-09-12T00:16:34;19.13;;;13.23;;
28003;SDS011;15330;51.234;6.754;2023-09-12T00:18:59;19.40;;;13.10;;
28003;SDS011;15330;51.234;6.754;2023-09-12T00:21:24;22.02;;;15.10;;
28003;SDS011;15330;51.234;6.754;2023-09-12T00:23:50;18.98;;;14.20;;
28003;SDS011;15330;51.234;6.754;2023-09-12T00:26:15;23.70;;;15.45;;
28003;SDS011;15330;51.234;6.754;2023-09-12T00:28:41;21.10;;;15.57;;
28003;SDS011;15330;51.234;6.754;2023-09-12T00:31:06;23.02;;;15.48;;
28003;SDS011;15330;51.234;6.754;2023-09-12T00:33:31;26.17;;;16.50;;
28003;SDS011;15330;51.234;6.754;2023-09-12T00:35:57;22.38;;;15.73;;
28003;SDS011;15330;51.234;6.754;2023-09-12T00:38:22;27.52;;;17.85;;
28003;SDS011;15330;51.234;6.754;2023-09-12T00:40:48;26.48;;;17.80;;
28003;SDS011;15330;51.234;6.754;2023-09-12T00:43:13;28.25;;;17.80;;
28003;SDS011;15330;51.234;6.754;2023-09-12T00:45:39;26.98;;;17.65;;
28003;SDS011;15330;51.234;6.754;2023-09-12T00:48:04;27.70;;;17.92;;
28003;SDS011;15330;51.234;6.754;2023-09-12T00:50:31;38.58;;;18.38;;
28003;SDS011;15330;51.234;6.754;2023-09-12T00:52:58;24.27;;;15.98;;
28003;SDS011;15330;51.234;6.754;2023-09-12T00:55:25;24.42;;;18.23;;
28003;SDS011;15330;51.234;6.754;2023-09-12T00:57:51;26.52;;;16.35;;
28003;SDS011;15330;51.234;6.754;2023-09-12T01:00:18;26.98;;;17.73;;
28003;SDS011;15330;51.234;6.754;2023-09-12T01:02:43;25.92;;;17.95;;
28003;SDS011;15330;51.234;6.754;2023-09-12T01:05:11;32.67;;;17.38;;
28003;SDS011;15330;51.234;6.754;2023-09-12T01:07:38;23.88;;;17.40;;
28003;SDS011;15330;51.234;6.754;2023-09-12T01:10:04;23.92;;;17.13;;
28003;SDS011;15330;51.234;6.754;2023-09-12T01:12:31;26.92;;;17.27;;
28003;SDS011;15330;51.234;6.754;2023-09-12T01:14:56;28.38;;;18.75;;
28003;SDS011;15330;51.234;6.754;2023-09-12T01:17:22;27.45;;;18.85;;
28003;SDS011;15330;51.234;6.754;2023-09-12T01:19:48;31.55;;;17.75;;
28003;SDS011;15330;51.234;6.754;2023-09-12T01:25:08;30.10;;;18.95;;
28003;SDS011;15330;51.234;6.754;2023-09-12T01:27:47;27.75;;;19.00;;
28003;SDS011;15330;51.234;6.754;2023-09-12T01:30:17;28.90;;;18.63;;
28003;SDS011;15330;51.234;6.754;2023-09-12T01:32:43;25.10;;;17.15;;
28003;SDS011;15330;51.234;6.754;2023-09-12T01:35:09;29.48;;;16.67;;
28003;SDS011;15330;51.234;6.754;2023-09-12T01:37:35;30.63;;;18.48;;
28003;SDS011;15330;51.234;6.754;2023-09-12T01:40:00;25.90;;;17.77;;
28003;SDS011;15330;51.234;6.754;2023-09-12T01:42:29;29.13;;;17.77;;
28003;SDS011;15330;51.234;6.754;2023-09-12T01:45:00;23.50;;;16.65;;
28003;SDS011;15330;51.234;6.754;2023-09-12T01:47:26;28.05;;;18.08;;
28003;SDS011;15330;51.234;6.754;2023-09-12T01:49:55;24.02;;;16.67;;
28003;SDS011;15330;51.234;6.754;2023-09-12T01:52:23;29.13;;;18.17;;
28003;SDS011;15330;51.234;6.754;2023-09-12T01:54:49;29.33;;;18.92;;
28003;SDS011;15330;51.234;6.754;2023-09-12T01:57:16;28.92;;;17.65;;
28003;SDS011;15330;51.234;6.754;2023-09-12T01:59:45;25.33;;;17.80;;
28003;SDS011;15330;51.234;6.754;2023-09-12T02:02:12;30.40;;;18.17;;
28003;SDS011;15330;51.234;6.754;2023-09-12T02:04:37;28.35;;;17.65;;
28003;SDS011;15330;51.234;6.754;2023-09-12T02:07:03;25.23;;;15.77;;
28003;SDS011;15330;51.234;6.754;2023-09-12T02:09:28;29.27;;;16.75;;
28003;SDS011;15330;51.234;6.754;2023-09-12T02:11:54;26.55;;;17.42;;
28003;SDS011;15330;51.234;6.754;2023-09-12T02:14:19;27.02;;;17.52;;
28003;SDS011;15330;51.234;6.754;2023-09-12T02:16:44;30.38;;;17.05;;
28003;SDS011;15330;51.234;6.754;2023-09-12T02:19:10;28.92;;;16.95;;
28003;SDS011;15330;51.234;6.754;2023-09-12T02:21:35;26.58;;;17.75;;
28003;SDS011;15330;51.234;6.754;2023-09-12T02:24:01;31.85;;;18.33;;
28003;SDS011;15330;51.234;6.754;2023-09-12T02:26:26;32.92;;;18.20;;
28003;SDS011;15330;51.234;6.754;2023-09-12T02:28:52;23.38;;;16.23;;
28003;SDS011;15330;51.234;6.754;2023-09-12T02:31:17;24.40;;;17.02;;
28003;SDS011;15330;51.234;6.754;2023-09-12T02:33:42;24.55;;;16.45;;
28003;SDS011;15330;51.234;6.754;2023-09-12T02:36:08;30.90;;;15.88;;
28003;SDS011;15330;51.234;6.754;2023-09-12T02:38:33;24.67;;;15.93;;
28003;SDS011;15330;51.234;6.754;2023-09-12T02:40:59;24.48;;;15.95;;
28003;SDS011;15330;51.234;6.754;2023-09-12T02:43:24;25.30;;;15.75;;
28003;SDS011;15330;51.234;6.754;2023-09-12T02:45:49;25.52;;;15.70;;
28003;SDS011;15330;51.234;6.754;2023-09-12T02:48:15;24.38;;;15.40;;
28003;SDS011;15330;51.234;6.754;2023-09-12T02:50:40;26.35;;;16.35;;
28003;SDS011;15330;51.234;6.754;2023-09-12T02:53:06;24.00;;;16.13;;
28003;SDS011;15330;51.234;6.754;2023-09-12T02:55:31;22.67;;;15.57;;
28003;SDS011;15330;51.234;6.754;2023-09-12T02:57:57;20.95;;;16.50;;
28003;SDS011;15330;51.234;6.754;2023-09-12T03:00:22;24.95;;;16.10;;
28003;SDS011;15330;51.234;6.754;2023-09-12T03:02:48;22.48;;;16.42;;
28003;SDS011;15330;51.234;6.754;2023-09-12T03:05:13;23.30;;;15.65;;
28003;SDS011;15330;51.234;6.754;2023-09-12T03:07:39;23.27;;;15.52;;
28003;SDS011;15330;51.234;6.754;2023-09-12T03:10:04;20.05;;;15.45;;
28003;SDS011;15330;51.234;6.754;2023-09-12T03:12:33;26.17;;;16.58;;
28003;SDS011;15330;51.234;6.754;2023-09-12T03:15:00;21.65;;;15.73;;
28003;SDS011;15330;51.234;6.754;2023-09-12T03:17:25;21.63;;;16.33;;
28003;SDS011;15330;51.234;6.754;2023-09-12T03:19:53;24.10;;;17.52;;
28003;SDS011;15330;51.234;6.754;2023-09-12T03:22:18;26.98;;;19.65;;
28003;SDS011;15330;51.234;6.754;2023-09-12T03:24:44;28.70;;;19.75;;
28003;SDS011;15330;51.234;6.754;2023-09-12T03:27:10;25.05;;;17.42;;
28003;SDS011;15330;51.234;6.754;2023-09-12T03:29:35;26.25;;;19.52;;
28003;SDS011;15330;51.234;6.754;2023-09-12T03:32:01;27.00;;;18.35;;
28003;SDS011;15330;51.234;6.754;2023-09-12T03:34:26;28.90;;;18.85;;
28003;SDS011;15330;51.234;6.754;2023-09-12T03:36:51;29.70;;;21.13;;
28003;SDS011;15330;51.234;6.754;2023-09-12T03:39:17;28.83;;;20.80;;
28003;SDS011;15330;51.234;6.754;2023-09-12T03:41:42;27.42;;;20.75;;
28003;SDS011;15330;51.234;6.754;2023-09-12T03:44:07;29.80;;;21.33;;
28003;SDS011;15330;51.234;6.754;2023-09-12T03:46:33;32.95;;;21.20;;
28003;SDS011;15330;51.234;6.754;2023-09-12T03:49:00;28.35;;;20.27;;
28003;SDS011;15330;51.234;6.754;2023-09-12T03:51:25;30.42;;;20.13;;
28003;SDS011;15330;51.234;6.754;2023-09-12T03:53:51;27.58;;;19.63;;
28003;SDS011;15330;51.234;6.754;2023-09-12T03:56:16;28.42;;;20.70;;
28003;SDS011;15330;51.234;6.754;2023-09-12T03:58:44;29.23;;;20.58;;
28003;SDS011;15330;51.234;6.754;2023-09-12T04:01:10;26.20;;;19.83;;
28003;SDS011;15330;51.234;6.754;2023-09-12T04:03:35;29.30;;;19.13;;
28003;SDS011;15330;51.234;6.754;2023-09-12T04:06:01;30.40;;;20.25;;
28003;SDS011;15330;51.234;6.754;2023-09-12T04:08:26;27.48;;;19.50;;
28003;SDS011;15330;51.234;6.754;2023-09-12T04:10:52;27.10;;;19.20;;
28003;SDS011;15330;51.234;6.754;2023-09-12T04:13:17;24.00;;;17.20;;
28003;SDS011;15330;51.234;6.754;2023-09-12T04:15:42;24.60;;;18.35;;
28003;SDS011;15330;51.234;6.754;2023-09-12T04:18:08;22.63;;;18.05;;
28003;SDS011;15330;51.234;6.754;2023-09-12T04:20:33;22.73;;;15.32;;
28003;SDS011;15330;51.234;6.754;2023-09-12T04:23:02;23.00;;;16.63;;
28003;SDS011;15330;51.234;6.754;2023-09-12T04:25:28;21.90;;;15.07;;
28003;SDS011;15330;51.234;6.754;2023-09-12T04:27:53;19.75;;;14.85;;
28003;SDS011;15330;51.234;6.754;2023-09-12T04:30:19;21.60;;;15.30;;
28003;SDS011;15330;51.234;6.754;2023-09-12T04:32:44;19.02;;;14.82;;
28003;SDS011;15330;51.234;6.754;2023-09-12T04:35:09;19.42;;;13.55;;
28003;SDS011;15330;51.234;6.754;2023-09-12T04:37:35;21.58;;;15.48;;
28003;SDS011;15330;51.234;6.754;2023-09-12T04:40:00;19.13;;;13.35;;
28003;SDS011;15330;51.234;6.754;2023-09-12T04:42:26;17.17;;;12.32;;
28003;SDS011;15330;51.234;6.754;2023-09-12T04:44:51;15.93;;;12.23;;
28003;SDS011;15330;51.234;6.754;2023-09-12T04:47:17;18.08;;;12.30;;
28003;SDS011;15330;51.234;6.754;2023-09-12T04:49:43;17.38;;;11.30;;
28003;SDS011;15330;51.234;6.754;2023-09-12T04:52:09;16.27;;;12.30;;
28003;SDS011;15330;51.234;6.754;2023-09-12T04:54:34;17.58;;;12.82;;
28003;SDS011;15330;51.234;6.754;2023-09-12T04:57:02;14.20;;;11.20;;
28003;SDS011;15330;51.234;6.754;2023-09-12T04:59:28;16.17;;;11.20;;
28003;SDS011;15330;51.234;6.754;2023-09-12T05:01:53;18.67;;;12.38;;
28003;SDS011;15330;51.234;6.754;2023-09-12T05:04:19;19.50;;;12.60;;
28003;SDS011;15330;51.234;6.754;2023-09-12T05:06:45;17.25;;;11.80;;
28003;SDS011;15330;51.234;6.754;2023-09-12T05:09:10;15.38;;;11.80;;
28003;SDS011;15330;51.234;6.754;2023-09-12T05:11:36;19.38;;;13.38;;
28003;SDS011;15330;51.234;6.754;2023-09-12T05:14:01;17.02;;;13.07;;
28003;SDS011;15330;51.234;6.754;2023-09-12T05:16:28;21.25;;;15.75;;
28003;SDS011;15330;51.234;6.754;2023-09-12T05:18:54;19.20;;;14.18;;
28003;SDS011;15330;51.234;6.754;2023-09-12T05:21:20;24.08;;;16.50;;
28003;SDS011;15330;51.234;6.754;2023-09-12T05:23:45;26.45;;;17.80;;
28003;SDS011;15330;51.234;6.754;2023-09-12T05:26:10;23.50;;;17.95;;
28003;SDS011;15330;51.234;6.754;2023-09-12T05:28:36;22.63;;;16.48;;
28003;SDS011;15330;51.234;6.754;2023-09-12T05:31:01;27.05;;;17.15;;
28003;SDS011;15330;51.234;6.754;2023-09-12T05:33:27;22.98;;;15.70;;
28003;SDS011;15330;51.234;6.754;2023-09-12T05:35:53;25.02;;;18.17;;
28003;SDS011;15330;51.234;6.754;2023-09-12T05:38:18;29.80;;;19.83;;
28003;SDS011;15330;51.234;6.754;2023-09-12T05:40:43;29.45;;;20.15;;
28003;SDS011;15330;51.234;6.754;2023-09-12T05:43:09;35.50;;;23.02;;
28003;SDS011;15330;51.234;6.754;2023-09-12T05:45:34;38.33;;;24.50;;
28003;SDS011;15330;51.234;6.754;2023-09-12T05:48:00;38.30;;;22.95;;
28003;SDS011;15330;51.234;6.754;2023-09-12T05:50:25;39.67;;;24.38;;
28003;SDS011;15330;51.234;6.754;2023-09-12T05:52:50;41.30;;;24.90;;
28003;SDS011;15330;51.234;6.754;2023-09-12T05:55:16;43.30;;;27.13;;
28003;SDS011;15330;51.234;6.754;2023-09-12T05:57:42;38.95;;;25.95;;
28003;SDS011;15330;51.234;6.754;2023-09-12T06:00:08;39.20;;;24.48;;
28003;SDS011;15330;51.234;6.754;2023-09-12T06:02:40;30.83;;;19.33;;
28003;SDS011;15330;51.234;6.754;2023-09-12T06:05:07;36.47;;;22.75;;
28003;SDS011;15330;51.234;6.754;2023-09-12T06:07:32;32.58;;;23.02;;
28003;SDS011;15330;51.234;6.754;2023-09-12T06:09:58;34.10;;;23.45;;
28003;SDS011;15330;51.234;6.754;2023-09-12T06:12:23;32.67;;;23.05;;
28003;SDS011;15330;51.234;6.754;2023-09-12T06:14:49;33.05;;;22.42;;
28003;SDS011;15330;51.234;6.754;2023-09-12T06:17:16;27.13;;;19.50;;
28003;SDS011;15330;51.234;6.754;2023-09-12T06:19:41;25.13;;;17.38;;
28003;SDS011;15330;51.234;6.754;2023-09-12T06:22:07;23.60;;;16.08;;
28003;SDS011;15330;51.234;6.754;2023-09-12T06:24:32;21.70;;;14.52;;
28003;SDS011;15330;51.234;6.754;2023-09-12T06:26:57;18.35;;;12.68;;
28003;SDS011;15330;51.234;6.754;2023-09-12T06:29:23;18.45;;;14.05;;
28003;SDS011;15330;51.234;6.754;2023-09-12T06:31:48;22.08;;;15.27;;
28003;SDS011;15330;51.234;6.754;2023-09-12T06:34:14;21.77;;;15.55;;
28003;SDS011;15330;51.234;6.754;2023-09-12T06:36:39;23.02;;;16.25;;
28003;SDS011;15330;51.234;6.754;2023-09-12T06:39:08;15.73;;;12.82;;
28003;SDS011;15330;51.234;6.754;2023-09-12T06:41:33;18.52;;;13.38;;
28003;SDS011;15330;51.234;6.754;2023-09-12T06:43:58;19.25;;;11.80;;
28003;SDS011;15330;51.234;6.754;2023-09-12T06:46:24;19.80;;;10.35;;
28003;SDS011;15330;51.234;6.754;2023-09-12T06:48:50;17.38;;;10.35;;
28003;SDS011;15330;51.234;6.754;2023-09-12T06:51:15;19.38;;;10.50;;
28003;SDS011;15330;51.234;6.754;2023-09-12T06:53:41;11.05;;;7.97;;
28003;SDS011;15330;51.234;6.754;2023-09-12T06:56:07;22.55;;;8.07;;
28003;SDS011;15330;51.234;6.754;2023-09-12T06:58:33;11.38;;;8.90;;
28003;SDS011;15330;51.234;6.754;2023-09-12T07:01:02;14.95;;;9.52;;
28003;SDS011;15330;51.234;6.754;2023-09-12T07:03:31;16.20;;;8.13;;
28003;SDS011;15330;51.234;6.754;2023-09-12T07:05:57;13.73;;;7.97;;
28003;SDS011;15330;51.234;6.754;2023-09-12T07:08:22;12.10;;;8.38;;
28003;SDS011;15330;51.234;6.754;2023-09-12T07:10:48;10.50;;;7.68;;
28003;SDS011;15330;51.234;6.754;2023-09-12T07:13:13;16.33;;;9.00;;
28003;SDS011;15330;51.234;6.754;2023-09-12T07:15:38;13.57;;;7.50;;
28003;SDS011;15330;51.234;6.754;2023-09-12T07:18:04;14.10;;;7.60;;
28003;SDS011;15330;51.234;6.754;2023-09-12T07:20:31;15.38;;;8.70;;
28003;SDS011;15330;51.234;6.754;2023-09-12T07:22:57;13.70;;;8.85;;
28003;SDS011;15330;51.234;6.754;2023-09-12T07:25:22;13.02;;;7.65;;
28003;SDS011;15330;51.234;6.754;2023-09-12T07:27:49;14.13;;;7.82;;
28003;SDS011;15330;51.234;6.754;2023-09-12T07:30:15;12.10;;;8.00;;
28003;SDS011;15330;51.234;6.754;2023-09-12T07:32:41;10.98;;;6.68;;
28003;SDS011;15330;51.234;6.754;2023-09-12T07:35:06;9.40;;;6.55;;
28003;SDS011;15330;51.234;6.754;2023-09-12T07:37:32;11.68;;;6.30;;
28003;SDS011;15330;51.234;6.754;2023-09-12T07:39:57;7.50;;;5.35;;
28003;SDS011;15330;51.234;6.754;2023-09-12T07:42:23;9.55;;;4.97;;
28003;SDS011;15330;51.234;6.754;2023-09-12T07:44:49;9.48;;;4.93;;
28003;SDS011;15330;51.234;6.754;2023-09-12T07:47:14;10.75;;;5.53;;
28003;SDS011;15330;51.234;6.754;2023-09-12T07:49:39;6.38;;;5.15;;
28003;SDS011;15330;51.234;6.754;2023-09-12T07:52:05;8.25;;;5.43;;
28003;SDS011;15330;51.234;6.754;2023-09-12T07:54:31;5.93;;;4.57;;
28003;SDS011;15330;51.234;6.754;2023-09-12T07:56:56;10.32;;;4.95;;
28003;SDS011;15330;51.234;6.754;2023-09-12T07:59:21;7.43;;;4.32;;
28003;SDS011;15330;51.234;6.754;2023-09-12T08:01:47;6.43;;;4.32;;
28003;SDS011;15330;51.234;6.754;2023-09-12T08:04:13;7.03;;;4.25;;
28003;SDS011;15330;51.234;6.754;2023-09-12T08:06:39;8.27;;;4.20;;
28003;SDS011;15330;51.234;6.754;2023-09-12T08:09:06;6.97;;;3.85;;
28003;SDS011;15330;51.234;6.754;2023-09-12T08:11:31;7.13;;;3.75;;
28003;SDS011;15330;51.234;6.754;2023-09-12T08:13:57;5.97;;;3.88;;
28003;SDS011;15330;51.234;6.754;2023-09-12T08:16:22;8.38;;;3.63;;
28003;SDS011;15330;51.234;6.754;2023-09-12T08:18:47;7.28;;;3.05;;
28003;SDS011;15330;51.234;6.754;2023-09-12T08:21:13;8.02;;;2.65;;
28003;SDS011;15330;51.234;6.754;2023-09-12T08:23:39;4.85;;;2.75;;
28003;SDS011;15330;51.234;6.754;2023-09-12T08:26:04;5.75;;;2.50;;
28003;SDS011;15330;51.234;6.754;2023-09-12T08:28:29;4.32;;;2.33;;
28003;SDS011;15330;51.234;6.754;2023-09-12T08:30:55;4.40;;;2.25;;
28003;SDS011;15330;51.234;6.754;2023-09-12T08:33:20;2.30;;;1.80;;
28003;SDS011;15330;51.234;6.754;2023-09-12T08:35:45;4.68;;;2.28;;
28003;SDS011;15330;51.234;6.754;2023-09-12T08:38:11;4.68;;;1.92;;
28003;SDS011;15330;51.234;6.754;2023-09-12T08:40:37;3.38;;;1.85;;
28003;SDS011;15330;51.234;6.754;2023-09-12T08:43:03;4.32;;;1.92;;
28003;SDS011;15330;51.234;6.754;2023-09-12T08:45:29;2.20;;;1.70;;
28003;SDS011;15330;51.234;6.754;2023-09-12T08:47:55;3.20;;;1.90;;
28003;SDS011;15330;51.234;6.754;2023-09-12T08:50:23;3.38;;;1.73;;
28003;SDS011;15330;51.234;6.754;2023-09-12T08:52:49;2.70;;;1.67;;
28003;SDS011;15330;51.234;6.754;2023-09-12T08:55:15;2.00;;;1.30;;
28003;SDS011;15330;51.234;6.754;2023-09-12T08:57:41;6.03;;;1.50;;
28003;SDS011;15330;51.234;6.754;2023-09-12T09:00:08;2.95;;;1.30;;
28003;SDS011;15330;51.234;6.754;2023-09-12T09:02:35;2.33;;;1.60;;
28003;SDS011;15330;51.234;6.754;2023-09-12T09:05:03;2.30;;;1.50;;
28003;SDS011;15330;51.234;6.754;2023-09-12T09:07:31;2.55;;;1.50;;
28003;SDS011;15330;51.234;6.754;2023-09-12T09:10:07;2.90;;;1.38;;
28003;SDS011;15330;51.234;6.754;2023-09-12T09:12:35;1.83;;;1.67;;
28003;SDS011;15330;51.234;6.754;2023-09-12T09:15:20;3.50;;;1.65;;
28003;SDS011;15330;51.234;6.754;2023-09-12T09:17:49;2.28;;;1.75;;
28003;SDS011;15330;51.234;6.754;2023-09-12T09:20:26;2.55;;;2.00;;
28003;SDS011;15330;51.234;6.754;2023-09-12T09:23:11;3.45;;;2.40;;
28003;SDS011;15330;51.234;6.754;2023-09-12T09:25:40;2.67;;;2.50;;
28003;SDS011;15330;51.234;6.754;2023-09-12T09:28:19;3.95;;;2.60;;
28003;SDS011;15330;51.234;6.754;2023-09-12T09:30:46;2.67;;;2.30;;
28003;SDS011;15330;51.234;6.754;2023-09-12T09:33:14;3.33;;;3.03;;
28003;SDS011;15330;51.234;6.754;2023-09-12T09:35:45;4.53;;;2.88;;
28003;SDS011;15330;51.234;6.754;2023-09-12T09:38:11;5.28;;;3.60;;
28003;SDS011;15330;51.234;6.754;2023-09-12T09:40:41;9.43;;;3.90;;
28003;SDS011;15330;51.234;6.754;2023-09-12T09:43:08;4.70;;;4.20;;
28003;SDS011;15330;51.234;6.754;2023-09-12T09:45:33;6.28;;;4.63;;
28003;SDS011;15330;51.234;6.754;2023-09-12T09:48:09;4.95;;;4.45;;
28003;SDS011;15330;51.234;6.754;2023-09-12T09:50:35;3.85;;;2.90;;
28003;SDS011;15330;51.234;6.754;2023-09-12T09:53:02;3.15;;;2.85;;
28003;SDS011;15330;51.234;6.754;2023-09-12T09:55:29;3.83;;;2.50;;
28003;SDS011;15330;51.234;6.754;2023-09-12T09:57:55;6.53;;;2.60;;
28003;SDS011;15330;51.234;6.754;2023-09-12T10:00:21;3.67;;;2.75;;
28003;SDS011;15330;51.234;6.754;2023-09-12T10:02:48;3.90;;;2.80;;
28003;SDS011;15330;51.234;6.754;2023-09-12T10:05:16;4.40;;;3.00;;
28003;SDS011;15330;51.234;6.754;2023-09-12T10:07:42;5.18;;;3.50;;
28003;SDS011;15330;51.234;6.754;2023-09-12T10:10:13;7.53;;;5.13;;
28003;SDS011;15330;51.234;6.754;2023-09-12T10:12:48;8.60;;;6.88;;
28003;SDS011;15330;51.234;6.754;2023-09-12T10:15:17;7.90;;;6.80;;
28003;SDS011;15330;51.234;6.754;2023-09-12T10:17:44;7.43;;;6.18;;
28003;SDS011;15330;51.234;6.754;2023-09-12T10:20:15;8.55;;;5.97;;
28003;SDS011;15330;51.234;6.754;2023-09-12T10:23:18;9.10;;;6.13;;
28003;SDS011;15330;51.234;6.754;2023-09-12T10:25:39;9.85;;;6.72;;
28003;SDS011;15330;51.234;6.754;2023-09-12T10:28:08;9.13;;;7.75;;
28003;SDS011;15330;51.234;6.754;2023-09-12T10:30:34;8.75;;;6.47;;
28003;SDS011;15330;51.234;6.754;2023-09-12T10:33:03;12.55;;;8.68;;
28003;SDS011;15330;51.234;6.754;2023-09-12T10:35:30;11.93;;;8.43;;
28003;SDS011;15330;51.234;6.754;2023-09-12T10:38:00;17.67;;;11.85;;
28003;SDS011;15330;51.234;6.754;2023-09-12T10:40:29;16.98;;;11.60;;
28003;SDS011;15330;51.234;6.754;2023-09-12T10:42:56;21.65;;;14.70;;
28003;SDS011;15330;51.234;6.754;2023-09-12T10:45:22;19.40;;;13.70;;
28003;SDS011;15330;51.234;6.754;2023-09-12T10:47:48;14.95;;;10.77;;
28003;SDS011;15330;51.234;6.754;2023-09-12T10:50:13;12.90;;;8.90;;
28003;SDS011;15330;51.234;6.754;2023-09-12T10:52:39;13.93;;;9.68;;
28003;SDS011;15330;51.234;6.754;2023-09-12T10:55:06;13.93;;;10.75;;
28003;SDS011;15330;51.234;6.754;2023-09-12T10:57:32;12.18;;;10.43;;
28003;SDS011;15330;51.234;6.754;2023-09-12T11:02:27;16.70;;;10.80;;
28003;SDS011;15330;51.234;6.754;2023-09-12T11:04:57;18.13;;;11.10;;
28003;SDS011;15330;51.234;6.754;2023-09-12T11:07:44;18.02;;;10.82;;
28003;SDS011;15330;51.234;6.754;2023-09-12T11:12:41;16.15;;;11.48;;
28003;SDS011;15330;51.234;6.754;2023-09-12T11:15:07;18.77;;;12.15;;
28003;SDS011;15330;51.234;6.754;2023-09-12T11:17:38;19.38;;;11.98;;
28003;SDS011;15330;51.234;6.754;2023-09-12T11:20:05;18.52;;;11.50;;
28003;SDS011;15330;51.234;6.754;2023-09-12T11:22:43;17.50;;;11.05;;
28003;SDS011;15330;51.234;6.754;2023-09-12T11:25:20;19.08;;;11.27;;
28003;SDS011;15330;51.234;6.754;2023-09-12T11:30:16;16.67;;;10.83;;
28003;SDS011;15330;51.234;6.754;2023-09-12T11:32:45;15.15;;;10.32;;
28003;SDS011;15330;51.234;6.754;2023-09-12T11:35:13;15.43;;;12.30;;
28003;SDS011;15330;51.234;6.754;2023-09-12T11:37:39;17.95;;;12.95;;
28003;SDS011;15330;51.234;6.754;2023-09-12T11:42:41;15.47;;;12.07;;
28003;SDS011;15330;51.234;6.754;2023-09-12T11:45:14;19.95;;;12.23;;
28003;SDS011;15330;51.234;6.754;2023-09-12T11:47:43;15.57;;;12.73;;
28003;SDS011;15330;51.234;6.754;2023-09-12T11:50:31;19.00;;;12.15;;
28003;SDS011;15330;51.234;6.754;2023-09-12T11:53:06;18.10;;;13.30;;
28003;SDS011;15330;51.234;6.754;2023-09-12T11:55:34;18.38;;;13.75;;
28003;SDS011;15330;51.234;6.754;2023-09-12T11:58:01;16.77;;;13.15;;
28003;SDS011;15330;51.234;6.754;2023-09-12T12:00:28;19.83;;;13.73;;
28003;SDS011;15330;51.234;6.754;2023-09-12T12:02:54;14.43;;;11.23;;
28003;SDS011;15330;51.234;6.754;2023-09-12T12:05:20;11.75;;;10.27;;
28003;SDS011;15330;51.234;6.754;2023-09-12T12:07:47;12.98;;;9.52;;
28003;SDS011;15330;51.234;6.754;2023-09-12T12:10:13;13.98;;;10.02;;
28003;SDS011;15330;51.234;6.754;2023-09-12T12:12:39;15.05;;;10.95;;
28003;SDS011;15330;51.234;6.754;2023-09-12T12:15:09;15.95;;;11.35;;
28003;SDS011;15330;51.234;6.754;2023-09-12T12:17:36;13.63;;;9.50;;
28003;SDS011;15330;51.234;6.754;2023-09-12T12:20:02;11.52;;;8.38;;
28003;SDS011;15330;51.234;6.754;2023-09-12T12:25:05;11.20;;;8.85;;
28003;SDS011;15330;51.234;6.754;2023-09-12T12:27:38;11.52;;;10.25;;
28003;SDS011;15330;51.234;6.754;2023-09-12T12:30:07;12.00;;;9.18;;
28003;SDS011;15330;51.234;6.754;2023-09-12T12:32:44;12.48;;;8.73;;
28003;SDS011;15330;51.234;6.754;2023-09-12T12:35:19;9.18;;;7.57;;
28003;SDS011;15330;51.234;6.754;2023-09-12T12:37:46;12.48;;;8.90;;
28003;SDS011;15330;51.234;6.754;2023-09-12T12:40:16;11.98;;;8.85;;
28003;SDS011;15330;51.234;6.754;2023-09-12T12:42:43;10.05;;;8.32;;
28003;SDS011;15330;51.234;6.754;2023-09-12T12:45:12;12.40;;;8.88;;
28003;SDS011;15330;51.234;6.754;2023-09-12T12:47:44;10.52;;;8.00;;
28003;SDS011;15330;51.234;6.754;2023-09-12T12:50:16;10.70;;;8.13;;
28003;SDS011;15330;51.234;6.754;2023-09-12T12:52:46;8.80;;;7.30;;
28003;SDS011;15330;51.234;6.754;2023-09-12T12:55:13;9.82;;;7.10;;
28003;SDS011;15330;51.234;6.754;2023-09-12T12:57:39;8.38;;;6.43;;
28003;SDS011;15330;51.234;6.754;2023-09-12T13:02:37;5.40;;;4.60;;
28003;SDS011;15330;51.234;6.754;2023-09-12T13:05:03;8.85;;;5.88;;
28003;SDS011;15330;51.234;6.754;2023-09-12T13:07:32;8.48;;;5.30;;
28003;SDS011;15330;51.234;6.754;2023-09-12T13:10:01;7.55;;;5.65;;
28003;SDS011;15330;51.234;6.754;2023-09-12T13:12:37;9.75;;;6.30;;
28003;SDS011;15330;51.234;6.754;2023-09-12T13:15:03;6.70;;;5.35;;
28003;SDS011;15330;51.234;6.754;2023-09-12T13:17:30;7.45;;;5.88;;
28003;SDS011;15330;51.234;6.754;2023-09-12T13:19:55;10.85;;;6.55;;
28003;SDS011;15330;51.234;6.754;2023-09-12T13:22:20;8.50;;;5.85;;
28003;SDS011;15330;51.234;6.754;2023-09-12T13:24:46;6.18;;;5.40;;
28003;SDS011;15330;51.234;6.754;2023-09-12T13:27:12;7.07;;;5.72;;
28003;SDS011;15330;51.234;6.754;2023-09-12T13:29:38;6.15;;;5.55;;
28003;SDS011;15330;51.234;6.754;2023-09-12T13:32:03;6.03;;;5.32;;
28003;SDS011;15330;51.234;6.754;2023-09-12T13:34:29;7.78;;;5.90;;
28003;SDS011;15330;51.234;6.754;2023-09-12T13:36:54;8.60;;;6.25;;
28003;SDS011;15330;51.234;6.754;2023-09-12T13:39:20;7.30;;;6.45;;
28003;SDS011;15330;51.234;6.754;2023-09-12T13:41:45;7.72;;;6.78;;
28003;SDS011;15330;51.234;6.754;2023-09-12T13:44:10;8.32;;;7.50;;
28003;SDS011;15330;51.234;6.754;2023-09-12T13:46:36;7.38;;;6.55;;
28003;SDS011;15330;51.234;6.754;2023-09-12T13:49:01;7.25;;;5.65;;
28003;SDS011;15330;51.234;6.754;2023-09-12T13:51:28;8.48;;;5.72;;
28003;SDS011;15330;51.234;6.754;2023-09-12T13:53:54;10.43;;;5.70;;
28003;SDS011;15330;51.234;6.754;2023-09-12T13:56:20;6.68;;;5.90;;
28003;SDS011;15330;51.234;6.754;2023-09-12T13:58:45;9.82;;;6.95;;
28003;SDS011;15330;51.234;6.754;2023-09-12T14:01:11;8.50;;;6.25;;
28003;SDS011;15330;51.234;6.754;2023-09-12T14:03:36;7.78;;;6.85;;
28003;SDS011;15330;51.234;6.754;2023-09-12T14:06:01;7.63;;;6.43;;
28003;SDS011;15330;51.234;6.754;2023-09-12T14:08:27;8.77;;;7.57;;
28003;SDS011;15330;51.234;6.754;2023-09-12T14:10:52;12.25;;;7.80;;
28003;SDS011;15330;51.234;6.754;2023-09-12T14:13:18;9.27;;;8.43;;
28003;SDS011;15330;51.234;6.754;2023-09-12T14:15:43;12.57;;;9.35;;
28003;SDS011;15330;51.234;6.754;2023-09-12T14:18:11;13.10;;;8.45;;
28003;SDS011;15330;51.234;6.754;2023-09-12T14:20:36;10.32;;;8.70;;
28003;SDS011;15330;51.234;6.754;2023-09-12T14:23:02;14.93;;;9.95;;
28003;SDS011;15330;51.234;6.754;2023-09-12T14:25:28;12.93;;;9.68;;
28003;SDS011;15330;51.234;6.754;2023-09-12T14:27:53;12.82;;;9.57;;
28003;SDS011;15330;51.234;6.754;2023-09-12T14:30:19;10.90;;;9.90;;
28003;SDS011;15330;51.234;6.754;2023-09-12T14:32:47;12.40;;;9.45;;
28003;SDS011;15330;51.234;6.754;2023-09-12T14:35:12;11.15;;;9.07;;
28003;SDS011;15330;51.234;6.754;2023-09-12T14:37:38;13.35;;;10.05;;
28003;SDS011;15330;51.234;6.754;2023-09-12T14:40:04;12.68;;;9.90;;
28003;SDS011;15330;51.234;6.754;2023-09-12T14:42:31;12.23;;;11.02;;
28003;SDS011;15330;51.234;6.754;2023-09-12T14:44:56;12.15;;;10.70;;
28003;SDS011;15330;51.234;6.754;2023-09-12T14:47:22;12.02;;;10.68;;